Time;durP1;ratioP1;P1;durP2;ratioP2;P2;SDS_P1;SDS_P2;PMS_P1;PMS_P2;Temp;Humidity;BMP_temperature;BMP_pressure;BME280_temperature;BME280_humidity;BME280_pressure;Samples;Min_cycle;Max_cycle;Signal;HPM_P1;HPM_P2
2023/01/25 00:01:58;;;;;;;;;;;;;;;4.81;84.64;103315.63;7359367;19;19934;-60
2023/01/25 00:04:27;;;;;;;;;;;;;;;4.80;84.68;103313.94;7357637;19;19926;-61
2023/01/25 00:06:54;;;;;;;;;;;;;;;4.79;84.44;103313.97;7358278;19;19926;-61
2023/01/25 00:09:22;;;;;;;;;;;;;;;4.80;84.79;103306.09;7356036;19;19927;-62
2023/01/25 00:11:50;;;;;;;;;;;;;;;4.82;84.79;103306.91;7361473;19;19966;-62
2023/01/25 00:14:16;;;;;;;;;;;;;;;4.80;84.48;103305.25;7360437;19;19923;-62
2023/01/25 00:16:43;;;;;;;;;;;;;;;4.72;84.17;103301.13;7331082;19;19938;-62
2023/01/25 00:19:10;;;;;;;;;;;;;;;4.69;84.19;103303.00;7352069;19;19929;-68
2023/01/25 00:21:41;;;;;;;;;;;;;;;4.65;84.48;103297.06;7358220;19;19923;-61
2023/01/25 00:24:10;;;;;;;;;;;;;;;4.66;84.73;103296.16;7357510;19;21210;-61
2023/01/25 00:26:38;;;;;;;;;;;;;;;4.61;84.18;103298.09;7359826;19;20240;-63
2023/01/25 00:29:05;;;;;;;;;;;;;;;4.59;84.46;103296.41;7357420;19;19949;-60
2023/01/25 00:31:33;;;;;;;;;;;;;;;4.59;84.79;103286.84;7359334;19;19923;-61
2023/01/25 00:34:05;;;;;;;;;;;;;;;4.66;87.77;103290.09;7357026;19;20593;-65
2023/01/25 00:36:33;;;;;;;;;;;;;;;4.62;87.63;103291.94;7357477;19;19982;-60
2023/01/25 00:39:00;;;;;;;;;;;;;;;4.56;86.79;103289.56;7358805;19;19915;-62
2023/01/25 00:41:27;;;;;;;;;;;;;;;4.53;86.35;103276.63;7353800;19;19992;-62
2023/01/25 00:43:54;;;;;;;;;;;;;;;4.56;87.31;103291.31;7320903;19;19927;-63
2023/01/25 00:46:21;;;;;;;;;;;;;;;4.55;87.08;103280.03;7357612;19;19919;-62
2023/01/25 00:48:48;;;;;;;;;;;;;;;4.54;86.58;103280.09;7360040;19;19923;-61
2023/01/25 00:51:15;;;;;;;;;;;;;;;4.54;85.85;103285.28;7356447;19;19914;-63
2023/01/25 00:53:41;;;;;;;;;;;;;;;4.54;86.21;103283.53;7359695;19;19927;-63
2023/01/25 00:56:08;;;;;;;;;;;;;;;4.53;86.08;103275.75;7358769;19;19919;-61
2023/01/25 00:58:35;;;;;;;;;;;;;;;4.51;86.15;103275.00;7355544;19;20309;-66
2023/01/25 01:01:02;;;;;;;;;;;;;;;4.47;85.86;103271.63;7356290;19;19919;-62
2023/01/25 01:03:29;;;;;;;;;;;;;;;4.46;85.68;103275.16;7355787;19;19938;-62
2023/01/25 01:05:58;;;;;;;;;;;;;;;4.45;85.83;103273.44;7358717;19;19938;-60
2023/01/25 01:08:25;;;;;;;;;;;;;;;4.45;85.76;103265.63;7329272;19;19923;-63
2023/01/25 01:10:57;;;;;;;;;;;;;;;4.44;86.21;103263.91;7350253;19;19937;-61
2023/01/25 01:13:24;;;;;;;;;;;;;;;4.41;85.75;103260.56;7358059;19;19930;-63
2023/01/25 01:15:51;;;;;;;;;;;;;;;4.35;85.56;103256.41;7357662;19;21379;-63
2023/01/25 01:18:18;;;;;;;;;;;;;;;4.35;86.22;103251.22;7358933;19;19921;-62
2023/01/25 01:20:48;;;;;;;;;;;;;;;4.37;86.28;103257.19;7355658;19;19929;-61
2023/01/25 01:23:15;;;;;;;;;;;;;;;4.35;86.66;103255.56;7355272;19;20331;-61
2023/01/25 01:25:42;;;;;;;;;;;;;;;4.30;86.23;103250.50;7354866;19;19922;-64
2023/01/25 01:28:09;;;;;;;;;;;;;;;4.26;86.41;103252.38;7354571;19;19926;-62
2023/01/25 01:30:36;;;;;;;;;;;;;;;4.22;86.01;103255.13;7354284;19;19923;-62
2023/01/25 01:33:03;;;;;;;;;;;;;;;4.23;87.01;103251.59;7356562;19;19926;-60
2023/01/25 01:35:30;;;;;;;;;;;;;;;4.22;87.37;103242.09;7326195;19;21713;-63
2023/01/25 01:37:57;;;;;;;;;;;;;;;4.18;87.44;103241.34;7355927;19;19939;-62
2023/01/25 01:40:25;;;;;;;;;;;;;;;4.15;87.53;103240.63;7353583;19;19922;-62
2023/01/25 01:42:55;;;;;;;;;;;;;;;4.11;87.11;103244.22;7342182;19;19926;-62
2023/01/25 01:45:25;;;;;;;;;;;;;;;4.06;87.28;103239.19;7354341;19;19946;-62
2023/01/25 01:47:51;;;;;;;;;;;;;;;4.05;87.18;103239.22;7355610;19;19927;-59
2023/01/25 01:50:20;;;;;;;;;;;;;;;4.06;87.34;103226.16;7357467;19;19929;-62
2023/01/25 01:52:47;;;;;;;;;;;;;;;4.09;88.14;103227.78;7357039;19;19914;-58
2023/01/25 01:55:17;;;;;;;;;;;;;;;4.10;88.01;103240.78;7353982;19;20014;-59
2023/01/25 01:57:47;;;;;;;;;;;;;;;4.10;87.86;103229.50;7354669;19;19934;-59
2023/01/25 02:00:17;;;;;;;;;;;;;;;4.09;87.76;103235.59;7316686;19;19929;-59
2023/01/25 02:02:45;;;;;;;;;;;;;;;4.09;87.73;103235.59;7353440;19;19943;-61
2023/01/25 02:05:16;;;;;;;;;;;;;;;4.11;87.81;103239.88;7353426;19;19919;-60
2023/01/25 02:07:45;;;;;;;;;;;;;;;4.13;87.79;103245.00;7355529;19;19933;-61
2023/01/25 02:10:12;;;;;;;;;;;;;;;4.13;87.63;103245.00;7353542;19;19926;-60
2023/01/25 02:12:40;;;;;;;;;;;;;;;4.11;87.27;103241.63;7356894;19;19922;-56
2023/01/25 02:15:07;;;;;;;;;;;;;;;4.11;87.27;103257.25;7354974;19;19926;-59
2023/01/25 02:17:36;;;;;;;;;;;;;;;4.10;86.96;103258.16;7355388;19;19927;-58
2023/01/25 02:20:05;;;;;;;;;;;;;;;4.11;86.64;103255.50;7360373;19;20452;-58
2023/01/25 02:22:35;;;;;;;;;;;;;;;4.12;86.87;103258.94;7362240;19;20491;-56
2023/01/25 02:25:05;;;;;;;;;;;;;;;4.14;86.54;103260.59;7330112;19;20474;-53
2023/01/25 02:27:35;;;;;;;;;;;;;;;4.18;86.38;103258.72;7354646;19;20245;-58
2023/01/25 02:30:02;;;;;;;;;;;;;;;4.19;86.11;103260.44;7359137;19;19933;-59
2023/01/25 02:32:30;;;;;;;;;;;;;;;4.20;85.84;103264.75;7363437;19;19939;-59
2023/01/25 02:34:57;;;;;;;;;;;;;;;4.17;85.31;103255.28;7357121;19;19922;-58
2023/01/25 02:37:25;;;;;;;;;;;;;;;4.16;85.45;103244.94;7360620;19;20812;-60
2023/01/25 02:39:52;;;;;;;;;;;;;;;4.19;85.62;103250.03;7359966;19;19951;-59
2023/01/25 02:42:19;;;;;;;;;;;;;;;4.21;85.44;103254.28;7358453;19;19933;-58
2023/01/25 02:44:46;;;;;;;;;;;;;;;4.21;85.45;103243.88;7356908;19;20038;-60
2023/01/25 02:47:13;;;;;;;;;;;;;;;4.22;84.79;103247.28;7361625;19;19927;-57
2023/01/25 02:49:39;;;;;;;;;;;;;;;4.21;85.11;103246.47;7360123;19;19915;-60
2023/01/25 02:52:07;;;;;;;;;;;;;;;4.21;84.74;103240.41;7325644;19;19965;-60
2023/01/25 02:54:33;;;;;;;;;;;;;;;4.20;84.63;103236.94;7360719;19;20438;-60
2023/01/25 02:57:00;;;;;;;;;;;;;;;4.21;85.17;103241.25;7360937;19;20476;-59
2023/01/25 02:59:27;;;;;;;;;;;;;;;4.22;85.10;103247.28;7361582;19;19931;-59
2023/01/25 03:01:53;;;;;;;;;;;;;;;4.22;84.77;103244.69;7360206;19;19919;-59
2023/01/25 03:04:20;;;;;;;;;;;;;;;4.23;85.01;103249.84;7360373;19;19927;-59
2023/01/25 03:06:50;;;;;;;;;;;;;;;4.24;84.83;103251.56;7358909;19;19935;-57
2023/01/25 03:09:17;;;;;;;;;;;;;;;4.22;84.44;103247.28;7358368;19;20313;-59
2023/01/25 03:11:44;;;;;;;;;;;;;;;4.22;84.53;103249.91;7362726;19;21647;-58
2023/01/25 03:14:11;;;;;;;;;;;;;;;4.26;84.68;103254.13;7358411;19;19949;-60
2023/01/25 03:16:37;;;;;;;;;;;;;;;4.27;84.71;103248.84;7360563;19;21865;-59
2023/01/25 03:19:04;;;;;;;;;;;;;;;4.29;84.37;103241.84;7359398;19;19924;-58
2023/01/25 03:21:31;;;;;;;;;;;;;;;4.32;84.31;103248.69;7359276;19;19919;-59
2023/01/25 03:24:01;;;;;;;;;;;;;;;4.31;84.34;103247.00;7357534;19;19919;-59
2023/01/25 03:26:29;;;;;;;;;;;;;;;4.33;83.97;103255.59;7361132;19;19930;-58
2023/01/25 03:28:58;;;;;;;;;;;;;;;4.35;83.88;103240.78;7358650;19;19919;-58
2023/01/25 03:31:24;;;;;;;;;;;;;;;4.35;84.38;103242.53;7358331;19;19915;-58
2023/01/25 03:33:51;;;;;;;;;;;;;;;4.33;85.04;103242.59;7360917;19;19966;-59
2023/01/25 03:36:19;;;;;;;;;;;;;;;4.33;85.02;103232.16;7358243;19;19923;-59
2023/01/25 03:38:45;;;;;;;;;;;;;;;4.36;84.66;103233.81;7356872;19;19919;-61
2023/01/25 03:41:13;;;;;;;;;;;;;;;4.37;84.18;103228.53;7360292;19;19915;-59
2023/01/25 03:43:40;;;;;;;;;;;;;;;4.40;84.55;103238.88;7354296;19;19935;-58
2023/01/25 03:46:07;;;;;;;;;;;;;;;4.39;84.31;103233.69;7355574;19;19933;-61
2023/01/25 03:48:34;;;;;;;;;;;;;;;4.37;83.85;103225.94;7359328;19;21560;-60
2023/01/25 03:51:01;;;;;;;;;;;;;;;4.34;83.40;103219.97;7359765;19;19923;-59
2023/01/25 03:53:29;;;;;;;;;;;;;;;4.34;83.61;103226.03;7358734;19;19918;-59
2023/01/25 03:55:58;;;;;;;;;;;;;;;4.36;83.93;103210.38;7358327;19;19923;-59
2023/01/25 03:58:26;;;;;;;;;;;;;;;4.38;85.12;103214.59;7356868;19;21483;-60
2023/01/25 04:00:54;;;;;;;;;;;;;;;4.36;84.82;103220.78;7358372;19;20005;-59
2023/01/25 04:03:21;;;;;;;;;;;;;;;4.30;84.91;103217.50;7355504;19;19941;-57
2023/01/25 04:05:49;;;;;;;;;;;;;;;4.29;84.46;103213.19;7357126;19;19927;-60
2023/01/25 04:08:16;;;;;;;;;;;;;;;4.27;84.17;103208.91;7357102;19;19919;-59
2023/01/25 04:10:43;;;;;;;;;;;;;;;4.27;84.24;103217.59;7356662;19;19922;-58
2023/01/25 04:13:10;;;;;;;;;;;;;;;4.27;84.46;103208.91;7356930;19;19978;-59
2023/01/25 04:15:37;;;;;;;;;;;;;;;4.26;84.55;103204.63;7358573;19;19929;-59
2023/01/25 04:18:03;;;;;;;;;;;;;;;4.27;84.45;103201.09;7356936;19;20623;-59
2023/01/25 04:20:31;;;;;;;;;;;;;;;4.28;84.86;103202.81;7356849;19;19933;-60
2023/01/25 04:22:58;;;;;;;;;;;;;;;4.28;85.34;103197.59;7357787;19;19942;-58
2023/01/25 04:25:25;;;;;;;;;;;;;;;4.29;85.76;103200.16;7356554;19;19930;-62
2023/01/25 04:27:52;;;;;;;;;;;;;;;4.28;85.21;103197.59;7356142;19;19930;-59
2023/01/25 04:30:18;;;;;;;;;;;;;;;4.32;85.31;103200.97;7354213;19;19923;-57
2023/01/25 04:32:45;;;;;;;;;;;;;;;4.30;85.53;103201.88;7356667;19;19927;-60
2023/01/25 04:35:12;;;;;;;;;;;;;;;4.30;85.01;103203.63;7356998;19;19971;-59
2023/01/25 04:37:39;;;;;;;;;;;;;;;4.34;84.72;103202.59;7357420;19;20603;-55
2023/01/25 04:40:07;;;;;;;;;;;;;;;4.34;84.27;103204.34;7333444;19;19919;-59
2023/01/25 04:42:34;;;;;;;;;;;;;;;4.32;83.75;103209.59;7343963;19;19923;-57
2023/01/25 04:45:01;;;;;;;;;;;;;;;4.30;83.72;103206.22;7353400;19;20037;-56
2023/01/25 04:47:27;;;;;;;;;;;;;;;4.28;83.21;103202.81;7356164;19;19929;-60
2023/01/25 04:49:54;;;;;;;;;;;;;;;4.23;83.51;103200.38;7356109;19;20632;-60
2023/01/25 04:52:21;;;;;;;;;;;;;;;4.23;84.03;103200.38;7357247;19;19930;-62
2023/01/25 04:54:48;;;;;;;;;;;;;;;4.23;83.72;103200.38;7356465;19;20420;-60
2023/01/25 04:57:15;;;;;;;;;;;;;;;4.22;83.88;103203.00;7356307;19;20919;-59
2023/01/25 04:59:41;;;;;;;;;;;;;;;4.19;83.67;103198.78;7357667;19;19923;-60
2023/01/25 05:02:08;;;;;;;;;;;;;;;4.17;83.54;103200.56;7356755;19;20359;-59
2023/01/25 05:04:35;;;;;;;;;;;;;;;4.14;83.74;103197.22;7357652;19;20321;-58
2023/01/25 05:07:02;;;;;;;;;;;;;;;4.14;83.95;103202.44;7355609;19;20432;-62
2023/01/25 05:09:29;;;;;;;;;;;;;;;4.17;84.64;103202.31;7354848;19;19925;-60
2023/01/25 05:11:56;;;;;;;;;;;;;;;4.18;84.29;103199.66;7356626;19;20483;-61
2023/01/25 05:14:23;;;;;;;;;;;;;;;4.16;84.13;103191.06;7355434;19;19922;-58
2023/01/25 05:16:50;;;;;;;;;;;;;;;4.15;83.94;103193.72;7356218;19;19922;-58
2023/01/25 05:19:17;;;;;;;;;;;;;;;4.13;84.17;103195.50;7354501;19;19926;-58
2023/01/25 05:24:14;;;;;;;;;;;;;;;4.16;84.51;103196.28;7356315;19;19923;-58
2023/01/25 05:29:11;;;;;;;;;;;;;;;4.14;84.60;103185.06;7352712;19;20006;-56
2023/01/25 05:31:37;;;;;;;;;;;;;;;4.15;84.52;103194.56;7356807;19;19923;-57
2023/01/25 05:34:05;;;;;;;;;;;;;;;4.13;83.72;103192.91;7354183;19;20412;-60
2023/01/25 05:36:31;;;;;;;;;;;;;;;4.11;83.62;103186.94;7355519;19;19938;-59
2023/01/25 05:38:58;;;;;;;;;;;;;;;4.11;83.71;103195.59;7355918;19;19932;-58
2023/01/25 05:41:25;;;;;;;;;;;;;;;4.09;83.67;103197.38;7354501;19;20547;-61
2023/01/25 05:43:51;;;;;;;;;;;;;;;4.07;83.48;103198.31;7353689;19;20017;-60
2023/01/25 05:46:19;;;;;;;;;;;;;;;4.07;83.82;103204.38;7351264;19;19982;-60
2023/01/25 05:48:47;;;;;;;;;;;;;;;4.07;83.84;103200.94;7353307;19;20413;-61
2023/01/25 05:51:14;;;;;;;;;;;;;;;4.06;84.16;103194.03;7354611;19;20078;-61
2023/01/25 05:53:41;;;;;;;;;;;;;;;4.06;84.35;103192.28;7358015;19;19927;-60
2023/01/25 05:56:09;;;;;;;;;;;;;;;4.08;84.35;103187.00;7363469;19;19915;-61
2023/01/25 05:58:37;;;;;;;;;;;;;;;4.10;84.27;103182.63;7363917;19;20533;-59
2023/01/25 06:01:04;;;;;;;;;;;;;;;4.11;84.72;103187.78;7361538;19;19938;-61
2023/01/25 06:03:31;;;;;;;;;;;;;;;4.13;84.32;103198.13;7359832;19;19953;-60
2023/01/25 06:06:01;;;;;;;;;;;;;;;4.15;84.42;103189.38;7361891;19;19927;-60
2023/01/25 06:08:29;;;;;;;;;;;;;;;4.18;84.90;103188.41;7364013;19;19929;-58
2023/01/25 06:10:56;;;;;;;;;;;;;;;4.22;86.54;103185.63;7360135;19;20547;-59
2023/01/25 06:13:23;;;;;;;;;;;;;;;4.18;85.97;103178.84;7362630;19;19927;-58
2023/01/25 06:15:50;;;;;;;;;;;;;;;4.17;85.91;103176.28;7364672;19;19914;-63
2023/01/25 06:18:18;;;;;;;;;;;;;;;4.17;86.01;103176.28;7363227;19;19969;-53
2023/01/25 06:20:44;;;;;;;;;;;;;;;4.17;86.33;103173.66;7331197;19;19919;-64
2023/01/25 06:23:11;;;;;;;;;;;;;;;4.16;86.11;103164.19;7354641;19;20101;-64
2023/01/25 06:25:38;;;;;;;;;;;;;;;4.18;86.70;103175.38;7362048;19;19930;-63
2023/01/25 06:28:05;;;;;;;;;;;;;;;4.21;87.43;103176.13;7360907;19;19925;-64
2023/01/25 06:30:32;;;;;;;;;;;;;;;4.21;86.79;103168.31;7359443;19;19915;-62
2023/01/25 06:32:59;;;;;;;;;;;;;;;4.21;86.54;103165.72;7363783;19;20460;-63
2023/01/25 06:35:27;;;;;;;;;;;;;;;4.21;86.28;103170.94;7359154;19;19927;-63
2023/01/25 06:37:55;;;;;;;;;;;;;;;4.22;86.51;103161.34;7361987;19;20033;-63
2023/01/25 06:40:22;;;;;;;;;;;;;;;4.25;86.98;103164.69;7360917;19;19918;-64
2023/01/25 06:42:49;;;;;;;;;;;;;;;4.26;87.49;103165.56;7361700;19;21085;-63
2023/01/25 06:45:16;;;;;;;;;;;;;;;4.23;87.15;103165.63;7335114;19;19919;-62
2023/01/25 06:47:42;;;;;;;;;;;;;;;4.23;86.35;103156.06;7347524;19;19926;-64
2023/01/25 06:50:09;;;;;;;;;;;;;;;4.24;86.21;103156.94;7358202;19;19919;-63
2023/01/25 06:52:36;;;;;;;;;;;;;;;4.25;86.23;103162.09;7361218;19;19990;-63
2023/01/25 06:55:05;;;;;;;;;;;;;;;4.24;86.46;103147.38;7358981;19;19991;-62
2023/01/25 06:57:33;;;;;;;;;;;;;;;4.27;86.62;103155.06;7357417;19;20317;-63
2023/01/25 07:00:00;;;;;;;;;;;;;;;4.26;86.90;103145.56;7361948;19;19939;-65
2023/01/25 07:02:27;;;;;;;;;;;;;;;4.30;87.25;103144.53;7362340;19;20002;-63
2023/01/25 07:04:54;;;;;;;;;;;;;;;4.33;86.99;103151.38;7359257;19;19919;-64
2023/01/25 07:07:22;;;;;;;;;;;;;;;4.32;87.67;103140.09;7360189;19;19919;-63
2023/01/25 07:09:49;;;;;;;;;;;;;;;4.30;87.41;103133.28;7358110;19;19922;-65
2023/01/25 07:12:16;;;;;;;;;;;;;;;4.30;87.43;103141.09;7330103;19;19922;-64
2023/01/25 07:14:42;;;;;;;;;;;;;;;4.26;87.19;103149.91;7353556;19;19921;-63
2023/01/25 07:17:09;;;;;;;;;;;;;;;4.24;87.19;103154.31;7359274;19;19919;-63
2023/01/25 07:19:36;;;;;;;;;;;;;;;4.23;87.56;103152.63;7358502;19;19998;-63
2023/01/25 07:22:03;;;;;;;;;;;;;;;4.20;87.61;103140.56;7359194;19;19918;-63
2023/01/25 07:24:30;;;;;;;;;;;;;;;4.19;88.23;103144.06;7357845;19;19949;-64
2023/01/25 07:26:57;;;;;;;;;;;;;;;4.18;88.24;103134.53;7360039;19;20317;-63
2023/01/25 07:29:24;;;;;;;;;;;;;;;4.16;88.20;103141.59;7356675;19;20384;-64
2023/01/25 07:31:51;;;;;;;;;;;;;;;4.15;88.48;103134.66;7359222;19;20747;-65
2023/01/25 07:34:19;;;;;;;;;;;;;;;4.14;88.29;103132.09;7359017;19;19926;-64
2023/01/25 07:36:45;;;;;;;;;;;;;;;4.12;88.06;103139.97;7357971;19;19922;-63
2023/01/25 07:39:13;;;;;;;;;;;;;;;4.12;88.42;103139.13;7359935;19;20010;-64
2023/01/25 07:41:39;;;;;;;;;;;;;;;4.09;88.94;103137.47;7360143;19;20018;-63
2023/01/25 07:44:06;;;;;;;;;;;;;;;4.10;89.36;103140.94;7357742;19;19998;-63
2023/01/25 07:46:33;;;;;;;;;;;;;;;4.12;89.62;103131.31;7361595;19;20401;-62
2023/01/25 07:49:01;;;;;;;;;;;;;;;4.12;89.18;103134.75;7360940;19;20390;-62
2023/01/25 07:51:29;;;;;;;;;;;;;;;4.12;88.50;103132.16;7359625;19;19921;-64
2023/01/25 07:53:59;;;;;;;;;;;;;;;4.09;88.58;103124.47;7361797;19;19919;-63
2023/01/25 07:56:27;;;;;;;;;;;;;;;4.14;90.09;103125.16;7361317;19;20119;-64
2023/01/25 07:58:54;;;;;;;;;;;;;;;4.27;92.41;103120.34;7358667;19;19933;-63
2023/01/25 08:01:22;;;;;;;;;;;;;;;4.26;92.04;103116.91;7359224;19;19930;-64
2023/01/25 08:03:50;;;;;;;;;;;;;;;4.23;90.74;103116.16;7359271;19;19923;-63
2023/01/25 08:06:26;;;;;;;;;;;;;;;4.21;89.92;103118.81;7360487;19;19922;-63
2023/01/25 08:08:54;;;;;;;;;;;;;;;4.20;89.11;103116.25;7359066;19;19948;-64
2023/01/25 08:11:24;;;;;;;;;;;;;;;4.19;88.98;103110.19;7358319;19;19923;-63
2023/01/25 08:13:51;;;;;;;;;;;;;;;4.19;88.91;103109.34;7360746;19;19937;-62
2023/01/25 08:16:19;;;;;;;;;;;;;;;4.18;88.80;103110.25;7359243;19;20853;-62
2023/01/25 08:18:47;;;;;;;;;;;;;;;4.14;88.91;103106.91;7361975;19;19919;-65
2023/01/25 08:21:16;;;;;;;;;;;;;;;4.10;89.04;103109.69;7359547;19;22148;-64
2023/01/25 08:23:44;;;;;;;;;;;;;;;4.09;89.61;103102.78;7360023;19;19986;-63
2023/01/25 08:26:12;;;;;;;;;;;;;;;4.08;89.65;103098.47;7358859;19;19951;-64
2023/01/25 08:28:40;;;;;;;;;;;;;;;4.07;88.84;103101.97;7359486;19;20348;-64
2023/01/25 08:31:07;;;;;;;;;;;;;;;4.07;88.84;103086.34;7357586;19;19950;-63
2023/01/25 08:33:34;;;;;;;;;;;;;;;4.07;88.59;103091.53;7359563;19;19930;-64
2023/01/25 08:36:02;;;;;;;;;;;;;;;4.03;88.36;103093.41;7357833;19;19925;-64
2023/01/25 08:38:30;;;;;;;;;;;;;;;4.05;88.37;103098.59;7361050;19;20020;-64
2023/01/25 08:41:00;;;;;;;;;;;;;;;4.06;88.80;103097.69;7358957;19;20592;-65
2023/01/25 08:43:27;;;;;;;;;;;;;;;4.08;89.04;103088.91;7356221;19;20266;-63
2023/01/25 08:45:55;;;;;;;;;;;;;;;4.02;89.38;103081.28;7358685;19;19918;-65
2023/01/25 08:48:23;;;;;;;;;;;;;;;4.00;89.98;103082.28;7362010;19;19920;-64
2023/01/25 08:50:50;;;;;;;;;;;;;;;4.02;89.70;103077.84;7358374;19;19915;-63
2023/01/25 08:53:17;;;;;;;;;;;;;;;4.00;89.65;103082.28;7359979;19;19949;-64
2023/01/25 08:55:44;;;;;;;;;;;;;;;4.00;89.52;103075.31;7358165;19;19925;-63
2023/01/25 08:58:13;;;;;;;;;;;;;;;4.01;89.24;103078.75;7358237;19;19930;-67
2023/01/25 09:00:40;;;;;;;;;;;;;;;4.03;88.88;103075.19;7358223;19;20267;-65
2023/01/25 09:03:09;;;;;;;;;;;;;;;4.04;88.45;103082.09;7357890;19;20395;-64
2023/01/25 09:05:37;;;;;;;;;;;;;;;4.06;88.20;103076.84;7358690;19;19929;-65
2023/01/25 09:08:06;;;;;;;;;;;;;;;4.05;88.28;103067.31;7359446;19;19986;-63
2023/01/25 09:10:33;;;;;;;;;;;;;;;4.04;88.26;103066.47;7355967;19;19918;-63
2023/01/25 09:13:00;;;;;;;;;;;;;;;4.08;89.52;103060.25;7357801;19;19953;-64
2023/01/25 09:15:28;;;;;;;;;;;;;;;4.07;89.19;103052.47;7359704;19;19922;-63
2023/01/25 09:17:55;;;;;;;;;;;;;;;4.06;88.98;103049.06;7360241;19;19919;-64
2023/01/25 09:20:23;;;;;;;;;;;;;;;4.05;89.26;103047.34;7357851;19;19922;-63
2023/01/25 09:22:52;;;;;;;;;;;;;;;4.06;89.89;103041.25;7359827;19;21648;-63
2023/01/25 09:25:19;;;;;;;;;;;;;;;4.06;90.28;103036.03;7356316;19;20647;-63
2023/01/25 09:27:49;;;;;;;;;;;;;;;4.11;90.94;103033.25;7355636;19;19927;-63
2023/01/25 09:30:16;;;;;;;;;;;;;;;3.99;90.28;103026.72;7355694;19;19918;-63
2023/01/25 09:32:47;;;;;;;;;;;;;;;3.92;90.16;103020.03;7360449;19;19927;-64
2023/01/25 09:35:15;;;;;;;;;;;;;;;3.93;91.10;103013.06;7357816;19;19929;-64
2023/01/25 09:37:42;;;;;;;;;;;;;;;3.96;92.06;103008.63;7357034;19;19914;-66
2023/01/25 09:40:13;;;;;;;;;;;;;;;4.05;92.97;103013.50;7357225;19;19936;-63
2023/01/25 09:42:43;;;;;;;;;;;;;;;4.12;92.99;103007.13;7356109;19;19952;-66
2023/01/25 09:45:12;;;;;;;;;;;;;;;4.14;92.76;103002.72;7356635;19;19923;-64
2023/01/25 09:47:42;;;;;;;;;;;;;;;4.17;92.46;103002.59;7356908;19;19938;-64
2023/01/25 09:50:12;;;;;;;;;;;;;;;4.20;91.97;102996.44;7356537;19;19922;-64
2023/01/25 09:52:42;;;;;;;;;;;;;;;4.21;91.91;102993.78;7359206;19;19946;-63
2023/01/25 09:55:12;;;;;;;;;;;;;;;4.25;91.89;102991.91;7355511;19;19933;-63
2023/01/25 09:57:41;;;;;;;;;;;;;;;4.23;91.93;102989.34;7356151;19;19926;-63
2023/01/25 10:00:15;;;;;;;;;;;;;;;4.24;92.12;102987.59;7355830;19;20808;-62
2023/01/25 10:02:44;;;;;;;;;;;;;;;4.22;92.30;102985.03;7354833;19;20365;-64
2023/01/25 10:05:15;;;;;;;;;;;;;;;4.24;91.90;102982.38;7355949;19;19937;-63
2023/01/25 10:07:45;;;;;;;;;;;;;;;4.24;91.96;102975.44;7354981;19;20305;-63
2023/01/25 10:10:15;;;;;;;;;;;;;;;4.22;91.96;102969.41;7354595;19;19931;-63
2023/01/25 10:12:43;;;;;;;;;;;;;;;4.23;91.77;102970.25;7320464;19;19918;-64
2023/01/25 10:15:16;;;;;;;;;;;;;;;4.22;92.28;102965.94;7350328;19;20039;-64
2023/01/25 10:17:44;;;;;;;;;;;;;;;4.26;92.44;102962.34;7354192;19;20317;-63
2023/01/25 10:20:14;;;;;;;;;;;;;;;4.30;92.78;102956.09;7354840;19;19933;-63
2023/01/25 10:22:46;;;;;;;;;;;;;;;4.28;92.83;102952.69;7353448;19;21149;-63
2023/01/25 10:25:22;;;;;;;;;;;;;;;4.26;92.54;102944.97;7354296;19;19917;-64
2023/01/25 10:27:53;;;;;;;;;;;;;;;4.26;92.52;102950.19;7353550;19;19966;-65
2023/01/25 10:30:23;;;;;;;;;;;;;;;4.28;92.29;102950.09;7354498;19;19994;-65
2023/01/25 10:32:52;;;;;;;;;;;;;;;4.28;92.17;102937.06;7355231;19;20038;-64
2023/01/25 10:35:28;;;;;;;;;;;;;;;4.28;92.29;102931.84;7356971;19;19919;-63
2023/01/25 10:38:06;;;;;;;;;;;;;;;4.30;92.45;102935.25;7355751;19;19972;-64
2023/01/25 10:40:38;;;;;;;;;;;;;;;4.34;92.22;102923.81;7356740;19;19949;-64
2023/01/25 10:43:09;;;;;;;;;;;;;;;4.41;92.58;102920.06;7360611;19;21270;-64
2023/01/25 10:45:37;;;;;;;;;;;;;;;4.43;92.92;102926.03;7360110;19;19935;-64
2023/01/25 10:48:07;;;;;;;;;;;;;;;4.45;92.82;102925.97;7357719;19;19947;-64
2023/01/25 10:50:37;;;;;;;;;;;;;;;4.47;92.74;102924.19;7358925;19;19925;-63
2023/01/25 10:53:19;;;;;;;;;;;;;;;4.46;92.74;102918.13;7361902;19;20372;-64
2023/01/25 10:55:53;;;;;;;;;;;;;;;4.43;92.91;102919.97;7361022;19;19923;-63
2023/01/25 10:58:23;;;;;;;;;;;;;;;4.36;92.45;102905.50;7359135;19;19915;-64
2023/01/25 11:00:51;;;;;;;;;;;;;;;4.36;92.25;102901.16;7361139;19;19922;-63
2023/01/25 11:03:19;;;;;;;;;;;;;;;4.40;92.42;102904.47;7358925;19;19923;-64
2023/01/25 11:05:51;;;;;;;;;;;;;;;4.40;92.46;102907.94;7362656;19;19923;-63
2023/01/25 11:08:23;;;;;;;;;;;;;;;4.42;92.84;102911.31;7363087;19;20011;-63
2023/01/25 11:10:51;;;;;;;;;;;;;;;4.49;93.26;102902.34;7360977;19;19989;-64
2023/01/25 11:13:20;;;;;;;;;;;;;;;4.54;92.75;102892.59;7358877;19;19922;-63
2023/01/25 11:15:50;;;;;;;;;;;;;;;4.56;92.96;102892.53;7358995;19;19911;-63
2023/01/25 11:18:19;;;;;;;;;;;;;;;4.55;92.54;102891.69;7360210;19;19923;-63
2023/01/25 11:20:46;;;;;;;;;;;;;;;4.57;92.62;102889.03;7358275;19;19919;-63
2023/01/25 11:23:16;;;;;;;;;;;;;;;4.58;92.62;102873.28;7359573;19;19923;-63
2023/01/25 11:25:43;;;;;;;;;;;;;;;4.60;92.18;102868.88;7358992;19;19927;-64
2023/01/25 11:28:11;;;;;;;;;;;;;;;4.59;91.62;102851.53;7359105;19;19982;-63
2023/01/25 11:30:38;;;;;;;;;;;;;;;4.56;91.46;102848.22;7360651;19;19915;-64
2023/01/25 11:33:09;;;;;;;;;;;;;;;4.58;91.25;102839.41;7360152;19;20027;-64
2023/01/25 11:35:42;;;;;;;;;;;;;;;4.59;91.19;102838.50;7358165;19;19923;-64
2023/01/25 11:38:13;;;;;;;;;;;;;;;4.60;91.91;102832.38;7360208;19;20677;-64
2023/01/25 11:40:40;;;;;;;;;;;;;;;4.61;91.71;102823.66;7358610;19;20439;-64
2023/01/25 11:43:10;;;;;;;;;;;;;;;4.66;92.09;102820.84;7356065;19;19919;-64
2023/01/25 11:45:40;;;;;;;;;;;;;;;4.67;91.88;102825.97;7358309;19;19923;-63
2023/01/25 11:48:11;;;;;;;;;;;;;;;4.69;91.90;102825.94;7359460;19;20591;-63
2023/01/25 11:50:45;;;;;;;;;;;;;;;4.76;92.30;102829.97;7358521;19;19922;-65
2023/01/25 11:53:14;;;;;;;;;;;;;;;4.79;92.04;102827.22;7361926;19;19930;-63
2023/01/25 11:55:44;;;;;;;;;;;;;;;4.81;91.94;102830.63;7358913;19;19926;-63
2023/01/25 11:58:14;;;;;;;;;;;;;;;4.84;92.16;102825.28;7357889;19;19927;-64
2023/01/25 12:00:44;;;;;;;;;;;;;;;4.88;92.24;102825.97;7358663;19;19927;-64
2023/01/25 12:03:14;;;;;;;;;;;;;;;4.93;92.20;102808.38;7357547;19;19919;-64
2023/01/25 12:05:46;;;;;;;;;;;;;;;4.94;92.05;102795.25;7358085;19;19919;-63
2023/01/25 12:08:16;;;;;;;;;;;;;;;4.97;92.37;102783.88;7358427;19;19923;-63
2023/01/25 12:10:46;;;;;;;;;;;;;;;4.99;91.96;102782.03;7357467;19;20002;-64
2023/01/25 12:13:13;;;;;;;;;;;;;;;5.03;92.21;102787.03;7357071;19;19922;-65
2023/01/25 12:15:50;;;;;;;;;;;;;;;5.04;92.15;102786.13;7354060;19;19915;-64
2023/01/25 12:18:21;;;;;;;;;;;;;;;5.10;92.66;102774.56;7358458;19;19926;-65
2023/01/25 12:20:59;;;;;;;;;;;;;;;5.14;92.59;102774.34;7357893;19;19928;-62
2023/01/25 12:23:29;;;;;;;;;;;;;;;5.16;92.48;102775.16;7359567;19;19923;-63
2023/01/25 12:25:58;;;;;;;;;;;;;;;5.16;92.45;102775.16;7357337;19;19935;-64
2023/01/25 12:28:28;;;;;;;;;;;;;;;5.16;92.79;102759.50;7357564;19;20234;-65
2023/01/25 12:30:56;;;;;;;;;;;;;;;5.21;93.03;102759.28;7358035;19;19922;-63
2023/01/25 12:33:28;;;;;;;;;;;;;;;5.26;93.13;102752.09;7360439;19;20001;-63
2023/01/25 12:35:58;;;;;;;;;;;;;;;5.31;93.02;102760.53;7358849;19;19926;-64
2023/01/25 12:38:28;;;;;;;;;;;;;;;5.35;92.74;102763.84;7360933;19;19935;-63
2023/01/25 12:41:00;;;;;;;;;;;;;;;5.36;93.07;102774.22;7357655;19;20002;-64
2023/01/25 12:43:31;;;;;;;;;;;;;;;5.39;92.73;102779.28;7359259;19;19952;-64
2023/01/25 12:46:00;;;;;;;;;;;;;;;5.43;92.95;102777.41;7356092;19;19962;-65
2023/01/25 12:48:27;;;;;;;;;;;;;;;5.42;92.58;102771.34;7357121;19;20554;-64
2023/01/25 12:50:55;;;;;;;;;;;;;;;5.45;92.84;102767.72;7356038;19;19907;-64
2023/01/25 12:53:26;;;;;;;;;;;;;;;5.48;92.98;102768.44;7358177;19;21111;-64
2023/01/25 12:55:54;;;;;;;;;;;;;;;5.49;92.69;102777.09;7356352;19;19918;-63
2023/01/25 12:58:22;;;;;;;;;;;;;;;5.49;92.75;102787.53;7357683;19;21103;-63